Deer Creek, Indiana
Current Conditions -  °F | °C
As of 1:15 PM on Thursday 29 Jan 2015 (Local Time) from KGGP Reporting Station
Drizzle Drizzle  
Wind Chill: 23°   Ceiling: 900
Heat Index: 32°   Visibility: 2mi
Dew Point: 32°   Wind: 13mph
Humidity: 100%   Direction: 300°WNW
Pressure: 29.88"   Gusts: 24mph
Location:  40.5923°N, 86.4903°W
Report Text: KGGP 291815Z AUTO 30011G21KT 2SM -DZ OVC009 00/00 A2988 RMK AO2
Loading
Personal Weather Stations






























Interactive Weather Map New forecast layout! Learn more

10-Day Weather Forecast

Advertisements
Track Severe Weather on mobile